createdAt,value
2022-08-13T00:02:09.858Z,101635.50
2022-08-13T00:05:43.635Z,101641.19
2022-08-13T00:08:36.925Z,101626.59
2022-08-13T00:12:01.654Z,101635.94
2022-08-13T00:15:13.150Z,101627.88
2022-08-13T00:18:22.594Z,101630.78
2022-08-13T00:21:58.046Z,101606.63
2022-08-13T00:24:57.753Z,101636.56
2022-08-13T00:28:03.416Z,101634.59
2022-08-13T00:31:08.895Z,101627.31
2022-08-13T00:34:13.172Z,101626.50
2022-08-13T00:37:15.795Z,101631.03
2022-08-13T00:40:31.996Z,101617.75
2022-08-13T00:43:35.673Z,101627.84
2022-08-13T00:46:38.648Z,101627.94
2022-08-13T00:50:00.398Z,101626.75
2022-08-13T00:53:03.423Z,101616.28
2022-08-13T00:56:09.556Z,101609.47
2022-08-13T00:59:14.726Z,101626.09
2022-08-13T01:02:17.630Z,101610.34
2022-08-13T01:05:20.919Z,101635.00
2022-08-13T01:08:24.951Z,101620.88
2022-08-13T01:11:34.476Z,101607.16
2022-08-13T01:14:37.530Z,101609.63
2022-08-13T01:17:47.215Z,101594.66
2022-08-13T01:21:03.025Z,101628.66
2022-08-13T01:24:07.678Z,101624.63
2022-08-13T01:27:11.071Z,101626.72
2022-08-13T01:30:16.928Z,101621.09
2022-08-13T01:33:19.683Z,101620.34
2022-08-13T01:36:44.168Z,101621.53
2022-08-13T01:39:46.575Z,101629.25
2022-08-13T01:42:56.052Z,101628.84
2022-08-13T01:45:59.448Z,101622.00
2022-08-13T01:49:43.933Z,101611.91
2022-08-13T01:52:50.928Z,101629.28
2022-08-13T01:56:15.206Z,101618.81
2022-08-13T01:59:19.344Z,101624.47
2022-08-13T02:02:35.060Z,101628.91
2022-08-13T02:06:20.403Z,101628.94
2022-08-13T02:09:22.421Z,101632.59
2022-08-13T02:12:35.731Z,101633.41
2022-08-13T02:15:42.215Z,101552.97
2022-08-13T02:18:45.198Z,101626.94
2022-08-13T02:21:48.554Z,101630.19
2022-08-13T02:24:55.482Z,101627.78
2022-08-13T02:27:59.465Z,101627.78
2022-08-13T02:31:02.260Z,101624.56
2022-08-13T02:34:08.624Z,101589.78
2022-08-13T02:37:45.128Z,101629.81
2022-08-13T02:40:57.184Z,101629.00
2022-08-13T02:44:02.536Z,101605.94
2022-08-13T02:47:05.853Z,101633.44
2022-08-13T02:50:11.170Z,101631.03
2022-08-13T02:53:30.149Z,101624.50
2022-08-13T02:56:34.092Z,101572.78
2022-08-13T03:00:01.529Z,101634.66
2022-08-13T03:03:02.134Z,101638.66
2022-08-13T03:06:10.061Z,101630.56
2022-08-13T03:09:12.657Z,101577.59
2022-08-13T03:12:18.392Z,101630.16
2022-08-13T03:15:34.319Z,101618.84
2022-08-13T03:18:51.317Z,101559.78
2022-08-13T03:21:56.564Z,101630.16
2022-08-13T03:25:04.825Z,101622.88
2022-08-13T03:28:07.799Z,101625.28
2022-08-13T03:31:12.580Z,101618.81
2022-08-13T03:34:18.563Z,101608.28
2022-08-13T03:37:24.358Z,101569.44
2022-08-13T03:40:50.681Z,101616.38
2022-08-13T03:43:55.292Z,101627.66
2022-08-13T03:47:00.835Z,101629.25
2022-08-13T03:50:07.863Z,101586.78
2022-08-13T03:53:26.683Z,101630.44
2022-08-13T03:56:35.580Z,101625.59
2022-08-13T03:59:46.314Z,101625.97
2022-08-13T04:02:53.317Z,101622.69
2022-08-13T04:05:58.083Z,101630.72
2022-08-13T04:09:04.713Z,101623.78
2022-08-13T04:12:11.404Z,101598.28
2022-08-13T04:15:14.019Z,101629.88
2022-08-13T04:18:19.552Z,101613.66
2022-08-13T04:21:22.939Z,101595.81
2022-08-13T04:24:28.706Z,101634.66
2022-08-13T04:27:33.282Z,101610.41
2022-08-13T04:30:39.378Z,101627.38
2022-08-13T04:34:14.191Z,101625.75
2022-08-13T04:37:19.693Z,101625.75
2022-08-13T04:40:29.468Z,101585.72
2022-08-13T04:43:33.550Z,101632.22
2022-08-13T04:46:41.332Z,101641.09
2022-08-13T04:49:50.936Z,101635.47
2022-08-13T04:52:53.640Z,101629.88
2022-08-13T04:56:08.667Z,101624.84
2022-08-13T04:59:18.909Z,101616.44
2022-08-13T05:02:23.080Z,101625.25
2022-08-13T05:05:27.272Z,101624.97
2022-08-13T05:08:32.485Z,101623.28
2022-08-13T05:11:36.892Z,101562.72
2022-08-13T05:14:39.613Z,101610.31
2022-08-13T05:17:46.427Z,101610.38
2022-08-13T05:20:52.858Z,101637.03
2022-08-13T05:26:20.767Z,101634.50
2022-08-13T05:27:19.916Z,101615.94
2022-08-13T05:30:31.921Z,101628.03
2022-08-13T05:33:43.888Z,101637.22
2022-08-13T05:38:20.026Z,101612.69
2022-08-13T05:40:36.808Z,101622.03
2022-08-13T05:43:40.475Z,101632.28
2022-08-13T05:46:43.398Z,101639.88
2022-08-13T05:49:58.326Z,101641.88
2022-08-13T05:53:10.747Z,101615.06
2022-08-13T05:56:18.446Z,101641.44
2022-08-13T05:59:45.260Z,101609.78
2022-08-13T06:03:09.434Z,101641.81
2022-08-13T06:06:15.881Z,101633.75
2022-08-13T06:09:25.670Z,101625.00
2022-08-13T06:12:42.209Z,101638.75
2022-08-13T06:16:04.506Z,101646.84
2022-08-13T06:19:16.772Z,101635.53
2022-08-13T06:22:20.633Z,101641.97
2022-08-13T06:25:24.984Z,101646.78
2022-08-13T06:28:28.388Z,101651.63
2022-08-13T06:31:33.175Z,101643.94
2022-08-13T06:34:49.907Z,101639.50
2022-08-13T06:37:52.623Z,101638.75
2022-08-13T06:40:56.720Z,101620.13
2022-08-13T06:44:01.489Z,101641.09
2022-08-13T06:47:06.746Z,101643.03
2022-08-13T06:50:12.491Z,101642.59
2022-08-13T06:54:22.009Z,101623.13
2022-08-13T06:56:41.582Z,101644.81
2022-08-13T06:59:45.660Z,101636.63
2022-08-13T07:03:06.903Z,101635.41
2022-08-13T07:06:15.570Z,101646.59
2022-08-13T07:09:19.620Z,101641.31
2022-08-13T07:12:25.450Z,101639.56
2022-08-13T07:15:39.329Z,101611.00
2022-08-13T07:18:47.564Z,101639.19
2022-08-13T07:21:52.387Z,101615.53
2022-08-13T07:24:55.612Z,101628.69
2022-08-13T07:28:04.259Z,101620.91
2022-08-13T07:31:10.598Z,101639.13
2022-08-13T07:34:14.126Z,101646.63
2022-08-13T07:37:54.793Z,101640.66
2022-08-13T07:40:59.357Z,101646.16
2022-08-13T07:44:04.503Z,101650.06
2022-08-13T07:47:10.651Z,101608.03
2022-08-13T07:50:15.493Z,101650.75
2022-08-13T07:53:20.260Z,101655.81
2022-08-13T07:56:50.416Z,101634.56
2022-08-13T08:00:03.507Z,101652.59
2022-08-13T08:03:18.082Z,101597.81
2022-08-13T08:06:29.056Z,101591.19
2022-08-13T08:09:40.174Z,101615.97
2022-08-13T08:12:47.331Z,101660.94
2022-08-13T08:16:02.257Z,101658.06
2022-08-13T08:20:07.138Z,101627.28
2022-08-13T08:22:31.750Z,101651.59
2022-08-13T08:25:49.526Z,101642.78
2022-08-13T08:28:59.921Z,101651.34
2022-08-13T08:32:10.617Z,101623.91
2022-08-13T08:35:13.631Z,101657.69
2022-08-13T08:38:38.195Z,101628.78
2022-08-13T08:41:59.041Z,101665.91
2022-08-13T08:45:04.367Z,101672.75
2022-08-13T08:48:12.049Z,101652.38
2022-08-13T08:51:14.626Z,101654.31
2022-08-13T08:54:31.422Z,101637.84
2022-08-13T08:57:37.410Z,101667.75
2022-08-13T09:00:40.411Z,101659.53
2022-08-13T09:03:57.651Z,101647.09
2022-08-13T09:07:01.056Z,101664.59
2022-08-13T09:10:05.495Z,101659.34
2022-08-13T09:13:10.241Z,101664.19
2022-08-13T09:16:13.631Z,101657.34
2022-08-13T09:19:22.238Z,101625.78
2022-08-13T09:22:53.464Z,101654.47
2022-08-13T09:25:57.538Z,101595.31
2022-08-13T09:29:00.311Z,101630.13
2022-08-13T09:32:06.579Z,101657.78
2022-08-13T09:35:12.700Z,101632.09
2022-08-13T09:38:16.434Z,101657.78
2022-08-13T09:41:29.303Z,101645.75
2022-08-13T09:44:43.784Z,101632.25
2022-08-13T09:48:43.451Z,101646.44
2022-08-13T09:51:55.928Z,101640.84
2022-08-13T09:54:42.175Z,101650.34
2022-08-13T09:57:51.329Z,101591.78
2022-08-13T10:00:55.218Z,101632.34
2022-08-13T10:03:58.291Z,101641.63
2022-08-13T10:07:04.322Z,101644.13
2022-08-13T10:10:31.992Z,101609.13
2022-08-13T10:13:50.581Z,101612.88
2022-08-13T10:16:54.835Z,101627.53
2022-08-13T10:19:58.177Z,101627.69
2022-08-13T10:23:03.238Z,101587.50
2022-08-13T10:26:06.487Z,101628.84
2022-08-13T10:30:06.083Z,101624.41
2022-08-13T10:32:31.915Z,101603.31
2022-08-13T10:35:39.482Z,101602.63
2022-08-13T10:38:53.451Z,101627.56
2022-08-13T10:42:02.921Z,101572.06
2022-08-13T10:45:07.297Z,101606.28
2022-08-13T10:48:11.863Z,101612.63
2022-08-13T10:51:15.292Z,101610.31
2022-08-13T10:54:36.256Z,101611.59
2022-08-13T10:58:00.319Z,101617.03
2022-08-13T11:01:04.751Z,101600.84
2022-08-13T11:04:15.469Z,101585.84
2022-08-13T11:07:18.952Z,101609.94
2022-08-13T11:10:22.948Z,101602.66
2022-08-13T11:13:26.343Z,101596.03
2022-08-13T11:17:04.519Z,101598.13
2022-08-13T11:20:18.449Z,101573.50
2022-08-13T11:23:21.693Z,101560.09
2022-08-13T11:26:35.119Z,101553.47
2022-08-13T11:29:45.887Z,101587.34
2022-08-13T11:32:48.684Z,101562.41
2022-08-13T11:35:53.073Z,101583.66
2022-08-13T11:38:55.687Z,101582.72
2022-08-13T11:41:59.838Z,101576.81
2022-08-13T11:45:02.365Z,101571.34
2022-08-13T11:48:07.899Z,101544.81
2022-08-13T11:51:12.843Z,101573.41
2022-08-13T11:54:29.939Z,101571.63
2022-08-13T11:57:39.424Z,101566.53
2022-08-13T12:00:49.130Z,101580.13
2022-08-13T12:04:17.014Z,101527.53
2022-08-13T12:07:16.675Z,101576.50
2022-08-13T12:10:46.541Z,101572.34
2022-08-13T12:13:43.625Z,101577.00
2022-08-13T12:16:48.700Z,101576.19
2022-08-13T12:19:51.461Z,101535.53
2022-08-13T12:22:55.450Z,101569.44
2022-08-13T12:26:03.357Z,101564.28
2022-08-13T12:29:09.046Z,101509.44
2022-08-13T12:32:15.544Z,101538.66
2022-08-13T12:35:18.210Z,101544.44
2022-08-13T12:38:29.209Z,101532.75
2022-08-13T12:41:38.989Z,101502.16
2022-08-13T12:45:06.310Z,101526.00
2022-08-13T12:48:10.309Z,101476.38
2022-08-13T12:51:12.918Z,101499.03
2022-08-13T12:54:40.166Z,101533.81
2022-08-13T12:58:02.514Z,101521.31
2022-08-13T13:01:05.219Z,101516.03
2022-08-13T13:04:07.787Z,101475.13
2022-08-13T13:07:11.307Z,101487.78
2022-08-13T13:10:14.228Z,101475.84
2022-08-13T13:13:46.860Z,101467.41
2022-08-13T13:16:56.559Z,101506.25
2022-08-13T13:20:07.960Z,101453.03
2022-08-13T13:23:15.088Z,101509.63
2022-08-13T13:26:20.299Z,101494.50
2022-08-13T13:29:24.818Z,101502.84
2022-08-13T13:32:41.064Z,101487.53
2022-08-13T13:36:16.250Z,101496.44
2022-08-13T13:39:22.159Z,101489.34
2022-08-13T13:42:29.378Z,101471.00
2022-08-13T13:45:35.018Z,101489.72
2022-08-13T13:48:43.529Z,101458.19
2022-08-13T13:51:52.174Z,101484.22
2022-08-13T13:54:57.167Z,101475.00
2022-08-13T13:58:49.751Z,101478.72
2022-08-13T14:01:25.039Z,101473.53
2022-08-13T14:04:30.033Z,101411.31
2022-08-13T14:07:48.677Z,101458.41
2022-08-13T14:10:55.260Z,101444.75
2022-08-13T14:14:00.307Z,101425.38
2022-08-13T14:17:04.836Z,101456.97
2022-08-13T14:20:16.071Z,101413.56
2022-08-13T14:23:41.791Z,101436.91
2022-08-13T14:26:45.671Z,101397.75
2022-08-13T14:29:53.162Z,101443.59
2022-08-13T14:32:56.481Z,101446.88
2022-08-13T14:36:10.558Z,101448.47
2022-08-13T14:39:22.085Z,101386.09
2022-08-13T14:43:17.650Z,101429.22
2022-08-13T14:45:58.399Z,101377.91
2022-08-13T14:49:04.930Z,101406.81
2022-08-13T14:52:11.806Z,101424.28
2022-08-13T14:55:15.884Z,101423.94
2022-08-13T14:58:34.096Z,101360.50
2022-08-13T15:01:42.112Z,101340.44
2022-08-13T15:04:58.950Z,101402.41
2022-08-13T15:08:16.357Z,101392.63
2022-08-13T15:11:27.086Z,101343.34
2022-08-13T15:14:29.926Z,101391.97
2022-08-13T15:17:45.105Z,101364.53
2022-08-13T15:20:59.964Z,101394.00
2022-08-13T15:24:06.550Z,101337.94
2022-08-13T15:27:11.806Z,101394.84
2022-08-13T15:30:17.615Z,101391.53
2022-08-13T15:33:23.655Z,101345.31
2022-08-13T15:36:59.855Z,101348.03
2022-08-13T15:40:06.382Z,101341.38
2022-08-13T15:43:10.300Z,101360.50
2022-08-13T15:46:17.100Z,101313.28
2022-08-13T15:49:20.219Z,101375.34
2022-08-13T15:52:25.775Z,101316.16
2022-08-13T15:55:35.322Z,101357.63
2022-08-13T15:58:39.554Z,101324.13
2022-08-13T16:01:46.429Z,101334.66
2022-08-13T16:04:52.988Z,101304.38
2022-08-13T16:07:59.373Z,101278.25
2022-08-13T16:11:07.191Z,101355.97
2022-08-13T16:14:29.973Z,101290.13
2022-08-13T16:17:38.967Z,101296.31
2022-08-13T16:20:43.826Z,101303.22
2022-08-13T16:23:58.391Z,101286.94
2022-08-13T16:27:23.711Z,101339.59
2022-08-13T16:30:33.363Z,101283.66
2022-08-13T16:33:51.464Z,101291.13
2022-08-13T16:36:56.742Z,101319.38
2022-08-13T16:40:02.715Z,101330.88
2022-08-13T16:43:11.054Z,101262.59
2022-08-13T16:46:13.986Z,101327.19
2022-08-13T16:49:17.435Z,101305.81
2022-08-13T16:52:33.465Z,101265.66
2022-08-13T16:55:39.117Z,101296.59
2022-08-13T16:58:55.132Z,101282.88
2022-08-13T17:01:58.739Z,101279.06
2022-08-13T17:05:27.199Z,101271.25
2022-08-13T17:08:47.748Z,101271.75
2022-08-13T17:11:54.695Z,101265.97
2022-08-13T17:15:01.553Z,101253.25
2022-08-13T17:18:04.926Z,101305.25
2022-08-13T17:21:32.170Z,101304.13
2022-08-13T17:24:56.144Z,101306.66
2022-08-13T17:27:58.974Z,101273.00
2022-08-13T17:31:05.384Z,101303.66
2022-08-13T17:34:10.245Z,101283.72
2022-08-13T17:37:20.426Z,101311.63
2022-08-13T17:40:51.815Z,101308.75
2022-08-13T17:44:02.248Z,101293.09
2022-08-13T17:47:59.339Z,101291.78
2022-08-13T17:50:42.667Z,101261.59
2022-08-13T17:53:53.752Z,101288.91
2022-08-13T17:57:05.520Z,101257.94
2022-08-13T18:00:16.664Z,101270.84
2022-08-13T18:03:24.244Z,101226.56
2022-08-13T18:06:31.529Z,101292.69
2022-08-13T18:09:48.047Z,101294.47
2022-08-13T18:12:56.397Z,101223.22
2022-08-13T18:17:06.644Z,101284.13
2022-08-13T18:19:26.929Z,101228.66
2022-08-13T18:22:29.650Z,101257.28
2022-08-13T18:25:32.566Z,101251.84
2022-08-13T18:28:36.310Z,101255.34
2022-08-13T18:31:41.206Z,101285.34
2022-08-13T18:35:34.949Z,101289.81
2022-08-13T18:38:39.060Z,101241.16
2022-08-13T18:42:08.765Z,101293.19
2022-08-13T18:45:24.390Z,101268.59
2022-08-13T18:48:36.205Z,101245.75
2022-08-13T18:51:41.377Z,101234.38
2022-08-13T18:54:46.656Z,101254.47
2022-08-13T18:58:01.479Z,101256.03
2022-08-13T19:01:05.983Z,101271.34
2022-08-13T19:04:09.440Z,101274.34
2022-08-13T19:07:14.621Z,101289.97
2022-08-13T19:10:39.637Z,101269.44
2022-08-13T19:13:44.275Z,101294.44
2022-08-13T19:16:57.542Z,101260.78
2022-08-13T19:20:01.430Z,101261.44
2022-08-13T19:23:13.204Z,101293.22
2022-08-13T19:26:22.238Z,101315.06
2022-08-13T19:29:29.052Z,101289.72
2022-08-13T19:32:32.174Z,101275.72
2022-08-13T19:35:36.625Z,101316.78
2022-08-13T19:39:00.951Z,101312.13
2022-08-13T19:42:06.658Z,101230.97
2022-08-13T19:45:15.952Z,101282.88
2022-08-13T19:48:38.468Z,101253.78
2022-08-13T19:51:49.151Z,101303.59
2022-08-13T19:55:00.200Z,101266.56
2022-08-13T19:58:06.269Z,101247.59
2022-08-13T20:01:14.099Z,101250.72
2022-08-13T20:04:18.017Z,101225.34
2022-08-13T20:07:20.855Z,101305.28
2022-08-13T20:10:23.833Z,101273.25
2022-08-13T20:13:31.184Z,101263.88
2022-08-13T20:16:34.211Z,101261.25
2022-08-13T20:19:59.102Z,101279.19
2022-08-13T20:22:59.618Z,101234.56
2022-08-13T20:26:05.492Z,101251.50
2022-08-13T20:29:32.296Z,101293.25
2022-08-13T20:32:55.184Z,101286.94
2022-08-13T20:35:58.398Z,101285.66
2022-08-13T20:39:33.358Z,101234.53
2022-08-13T20:42:28.500Z,101242.88
2022-08-13T20:45:43.459Z,101295.13
2022-08-13T20:48:53.724Z,101268.09
2022-08-13T20:51:56.557Z,101279.50
2022-08-13T20:55:00.357Z,101290.97
2022-08-13T21:00:48.112Z,101255.06
2022-08-13T21:01:42.782Z,101265.56
2022-08-13T21:04:47.531Z,101285.44
2022-08-13T21:07:50.866Z,101246.84
2022-08-13T21:10:53.497Z,101278.75
2022-08-13T21:13:56.702Z,101281.69
2022-08-13T21:17:02.455Z,101285.16
2022-08-13T21:20:06.261Z,101273.06
2022-08-13T21:23:10.613Z,101259.78
2022-08-13T21:26:13.337Z,101264.03
2022-08-13T21:29:33.826Z,101262.53
2022-08-13T21:32:51.845Z,101238.53
2022-08-13T21:35:55.600Z,101259.56
2022-08-13T21:38:58.173Z,101211.69
2022-08-13T21:42:03.854Z,101242.84
2022-08-13T21:45:07.302Z,101263.13
2022-08-13T21:48:16.372Z,101251.44
2022-08-13T21:51:19.077Z,101250.78
2022-08-13T21:54:30.412Z,101248.81
2022-08-13T21:57:33.792Z,101254.16
2022-08-13T22:00:36.637Z,101238.22
2022-08-13T22:04:01.056Z,101246.31
2022-08-13T22:07:12.862Z,101248.34
2022-08-13T22:10:16.404Z,101218.72
2022-08-13T22:13:22.929Z,101242.28
2022-08-13T22:16:26.924Z,101240.75
2022-08-13T22:19:31.177Z,101253.97
2022-08-13T22:22:33.842Z,101243.56
2022-08-13T22:25:38.512Z,101239.66
2022-08-13T22:28:58.701Z,101234.78
2022-08-13T22:32:02.475Z,101233.94
2022-08-13T22:35:07.540Z,101238.75
2022-08-13T22:38:19.467Z,101235.69
2022-08-13T22:41:28.368Z,101231.78
2022-08-13T22:44:30.959Z,101215.00
2022-08-13T22:47:38.727Z,101223.78
2022-08-13T22:50:43.266Z,101210.88
2022-08-13T22:53:46.143Z,101161.16
2022-08-13T22:56:48.843Z,101231.75
2022-08-13T22:59:51.426Z,101225.69
2022-08-13T23:02:54.116Z,101219.88
2022-08-13T23:06:00.306Z,101218.97
2022-08-13T23:09:03.018Z,101208.53
2022-08-13T23:12:07.802Z,101203.81
2022-08-13T23:15:11.907Z,101198.94
2022-08-13T23:18:15.515Z,101186.09
2022-08-13T23:21:19.481Z,101199.13
2022-08-13T23:24:24.240Z,101199.75
2022-08-13T23:27:29.562Z,101192.50
2022-08-13T23:30:33.866Z,101190.41
2022-08-13T23:33:37.787Z,101187.13
2022-08-13T23:36:42.721Z,101183.97
2022-08-13T23:39:57.755Z,101181.22
2022-08-13T23:43:00.481Z,101177.75
2022-08-13T23:46:03.673Z,101136.91
2022-08-13T23:49:07.664Z,101111.13
2022-08-13T23:52:14.175Z,101115.19
2022-08-13T23:55:20.249Z,101164.09
2022-08-13T23:58:34.609Z,101156.00
